TimeCDT,TemperatureF,Dew PointF,Humidity,Sea Level PressureIn,VisibilityMPH,Wind Direction,Wind SpeedMPH,Gust SpeedMPH,PrecipitationIn,Events,Conditions,WindDirDegrees,DateUTC
12:53 AM,79.0,59.0,50,29.90,10.0,South,12.7,-,N/A,,Clear,190,2013-08-27 05:53:00
1:53 AM,78.1,59.0,52,29.90,10.0,SSW,10.4,-,N/A,,Clear,210,2013-08-27 06:53:00
2:53 AM,75.9,57.9,54,29.90,10.0,SSW,8.1,-,N/A,,Clear,210,2013-08-27 07:53:00
3:53 AM,75.9,57.9,54,29.89,10.0,SW,10.4,17.3,N/A,,Clear,220,2013-08-27 08:53:00
4:53 AM,73.0,57.0,57,29.90,10.0,South,5.8,-,N/A,,Clear,190,2013-08-27 09:53:00
5:53 AM,73.0,57.0,57,29.91,10.0,SW,9.2,-,N/A,,Clear,230,2013-08-27 10:53:00
6:53 AM,72.0,57.0,59,29.91,10.0,SW,8.1,-,N/A,,Clear,230,2013-08-27 11:53:00
7:53 AM,70.0,57.9,65,29.93,10.0,Calm,Calm,-,N/A,,Clear,0,2013-08-27 12:53:00
8:53 AM,75.9,59.0,56,29.93,10.0,SW,8.1,-,N/A,,Clear,220,2013-08-27 13:53:00
9:53 AM,82.0,57.9,44,29.92,10.0,SSW,8.1,-,N/A,,Clear,210,2013-08-27 14:53:00
10:53 AM,87.1,59.0,39,29.92,10.0,SW,8.1,-,N/A,,Clear,230,2013-08-27 15:53:00
11:53 AM,93.0,59.0,32,29.91,10.0,South,10.4,-,N/A,,Clear,180,2013-08-27 16:53:00
12:53 PM,99.0,54.0,22,29.88,10.0,South,17.3,25.3,N/A,,Clear,190,2013-08-27 17:53:00
1:53 PM,100.0,55.0,22,29.86,10.0,South,15.0,24.2,N/A,,Clear,190,2013-08-27 18:53:00
2:53 PM,100.9,54.0,21,29.86,10.0,SSW,13.8,-,N/A,,Clear,200,2013-08-27 19:53:00
3:53 PM,102.0,53.1,19,29.84,10.0,SSW,13.8,-,N/A,,Clear,210,2013-08-27 20:53:00
4:53 PM,100.9,52.0,19,29.83,10.0,South,15.0,20.7,N/A,,Clear,190,2013-08-27 21:53:00
5:53 PM,100.9,52.0,19,29.83,10.0,SSW,6.9,-,N/A,,Clear,200,2013-08-27 22:53:00
6:53 PM,98.1,52.0,21,29.83,10.0,South,10.4,-,N/A,,Clear,180,2013-08-27 23:53:00
7:53 PM,93.0,53.1,26,29.84,10.0,South,12.7,-,N/A,,Clear,170,2013-08-28 00:53:00
8:53 PM,88.0,52.0,29,29.85,10.0,South,10.4,-,N/A,,Clear,170,2013-08-28 01:53:00
9:53 PM,84.9,54.0,34,29.86,10.0,South,11.5,-,N/A,,Clear,180,2013-08-28 02:53:00
10:53 PM,82.0,55.0,39,29.88,10.0,South,6.9,-,N/A,,Clear,180,2013-08-28 03:53:00
11:53 PM,79.0,55.9,45,29.88,10.0,SSW,10.4,17.3,N/A,,Clear,200,2013-08-28 04:53:00